Flight Track Log - Related Links

Times and Time Zones

All times are in EDT time to prevent confusion due to time zone crossing. See the EGF4174 flight status page for this flight to view local times or setup timezone preferences in your user account.

Time Position Orientation Groundspeed Altitude Reporting Facility
EDT Latitude Longitude Course Direction KTS MPH feet Rate Location/Type
Sun 05:02:00 PM 43.1072 -76.1406 285° West 171 197 1,000  Level Boston Center
Sun 05:04:19 PM 43.1403 -76.3150 285° West 233 268 5,200 1,477 Climbing Cleveland Center
Sun 05:05:19 PM 43.1747 -76.4036 298° West 254 292 5,900 1,250 Climbing Cleveland Center
Sun 05:06:19 PM 43.2069 -76.4900 297° West 260 299 7,700 2,050 Climbing Cleveland Center
Sun 05:07:19 PM 43.2269 -76.5883 286° West 260 299 10,000 1,950 Climbing Cleveland Center
Sun 05:08:19 PM 43.2431 -76.6928 282° West 266 306 11,600 1,600 Climbing Cleveland Center
Sun 05:09:19 PM 43.2614 -76.8056 283° West 284 327 13,200 1,600 Climbing Cleveland Center
Sun 05:10:19 PM 43.2797 -76.9186 283° West 298 343 14,800 1,550 Climbing Cleveland Center
Sun 05:11:19 PM 43.3000 -77.0344 284° West 309 356 16,300 1,450 Climbing Cleveland Center
Sun 05:12:19 PM 43.3117 -77.1481 278° West 309 356 17,700 1,350 Climbing Cleveland Center
Sun 05:13:19 PM 43.2942 -77.2658 259° West 309 356 19,000 1,350 Climbing Cleveland Center
Sun 05:14:19 PM 43.2767 -77.3839 259° West 309 356 20,400 1,400 Climbing Cleveland Center
Sun 05:15:19 PM 43.2611 -77.5014 260° West 314 361 21,800 1,200 Climbing Cleveland Center
Sun 05:16:19 PM 43.2456 -77.6219 260° West 314 361 22,800 1,100 Climbing Cleveland Center
Sun 05:17:19 PM 43.2242 -77.7625 258° West 326 375 24,000 1,100 Climbing Cleveland Center
Sun 05:18:19 PM 43.2083 -77.8917 260° West 337 388 25,000 950 Climbing Cleveland Center
Sun 05:19:19 PM 43.1906 -78.0233 260° West 348 400 25,900 950 Climbing Cleveland Center
Sun 05:20:19 PM 43.1706 -78.1578 259° West 353 406 26,900 1,000 Climbing Cleveland Center
Sun 05:21:19 PM 43.1522 -78.2894 259° West 358 412 27,900 950 Climbing Cleveland Center
Sun 05:22:19 PM 43.1403 -78.4208 263° West 358 412 28,800 550 Climbing Cleveland Center
Sun 05:23:19 PM 43.1300 -78.5436 263° West 358 412 29,000 3,600 Climbing Cleveland Center
Sun 05:24:19 PM 43.1156 -78.6778 262° West 358 412 36,000 3,500 Climbing Cleveland Center
Sun 05:25:19 PM 43.1031 -78.8147 263° West 358 412 36,000 -3,464 Level Cleveland Center
Sun 05:25:56 PM 43.1167 -78.9333 279° West 390 449 30,400 -2,845 Descending Toronto Center
Sun 05:26:56 PM 43.1167 -79.0667 270° West 390 449 31,400 1,100 Climbing Toronto Center
Sun 05:27:56 PM 43.1000 -79.2167 261° West 380 437 32,600 1,250 Climbing Toronto Center
Sun 05:28:56 PM 43.1000 -79.3667 270° West 370 426 33,900 1,250 Climbing Toronto Center
Sun 05:29:56 PM 43.1000 -79.5000 270° West 360 414 35,100 1,041 Climbing Toronto Center
Sun 05:30:57 PM 43.1000 -79.6333 270° West 350 403 36,000 450 Climbing Toronto Center
Sun 05:31:56 PM 43.0833 -79.7500 259° West 360 414 36,000  Level Toronto Center
Sun 05:32:56 PM 43.0833 -79.9000 270° West 370 426 36,000  Level Toronto Center
Sun 05:33:56 PM 43.0833 -80.0500 270° West 380 437 36,000  Level Toronto Center
Sun 05:34:56 PM 43.0667 -80.2000 261° West 370 426 36,000  Level Toronto Center
Sun 05:35:57 PM 43.0667 -80.3333 270° West 370 426 36,000  Level Toronto Center
Sun 05:36:56 PM 43.0667 -80.4833 270° West 360 414 36,000  Level Toronto Center
Sun 05:37:56 PM 43.0500 -80.6167 260° West 360 414 36,000  Level Toronto Center
Sun 05:38:56 PM 43.0500 -80.7500 270° West 360 414 36,000  Level Toronto Center
Sun 05:39:56 PM 43.0333 -80.8833 260° West 370 426 36,000  Level Toronto Center
Sun 05:40:56 PM 43.0167 -81.0167 260° West 380 437 36,000  Level Toronto Center
Sun 05:41:56 PM 43.0167 -81.1833 270° West 390 449 36,000  Level Toronto Center
Sun 05:42:56 PM 43.0167 -81.3167 270° West 390 449 36,000  Level Toronto Center
Sun 05:43:56 PM 43.0167 -81.4500 270° West 380 437 36,000  Level Toronto Center
Sun 05:44:56 PM 43.0167 -81.6167 270° West 380 437 36,000  Level Toronto Center
Sun 05:45:56 PM 43.0167 -81.7500 270° West 370 426 36,000  Level Toronto Center
Sun 05:46:56 PM 43.0167 -81.8833 270° West 370 426 36,000  Level Toronto Center
Sun 05:47:56 PM 43.0000 -82.0333 261° West 370 426 36,000  Level Toronto Center
Sun 05:48:56 PM 43.0000 -82.1667 270° West 370 426 36,000  Level Toronto Center
Sun 05:49:56 PM 43.0000 -82.3167 270° West 370 426 36,000  Level Toronto Center
Sun 05:50:56 PM 43.0000 -82.4667 270° West 370 426 36,000 -400 Level Toronto Center
Sun 05:51:56 PM 43.0000 -82.6000 270° West 370 426 35,200 -1,099 Descending Toronto Center
Sun 05:53:07 PM 42.9981 -82.7633 269° West 377 434 33,600 -1,649 Descending Cleveland Center
Sun 05:54:07 PM 42.9953 -82.9053 269° West 383 441 31,600 -1,550 Descending Cleveland Center
Sun 05:55:07 PM 42.9903 -83.0469 267° West 383 441 30,500 -800 Descending Cleveland Center
Sun 05:56:07 PM 42.9850 -83.1942 267° West 383 441 30,000 -250 Descending Cleveland Center
Sun 05:57:07 PM 42.9817 -83.3417 268° West 383 441 30,000  Level Cleveland Center
Sun 05:58:07 PM 42.9739 -83.4889 266° West 389 448 30,000  Level Cleveland Center
Sun 05:59:07 PM 42.9672 -83.6589 267° West 400 460 30,000  Level Cleveland Center
Sun 06:00:07 PM 42.9589 -83.8144 266° West 406 467 30,000  Level Cleveland Center
Sun 06:01:10 PM 42.9442 -83.9614 262° West 406 467 30,000  Level Cleveland Center
Sun 06:02:07 PM 42.9314 -84.1167 264° West 406 467 30,000  Level Cleveland Center
Sun 06:03:00 PM 42.9175 -84.2469 262° West 408 470 30,000  Level Chicago Center
Sun 06:04:02 PM 42.9019 -84.3981 262° West 404 465 30,000  Level Chicago Center
Sun 06:05:04 PM 42.8878 -84.5500 263° West 405 466 30,000  Level Chicago Center
Sun 06:06:07 PM 42.8714 -84.7017 262° West 405 466 30,000  Level Chicago Center
Sun 06:07:09 PM 42.8553 -84.8539 262° West 406 467 30,000  Level Chicago Center
Sun 06:08:11 PM 42.8392 -85.0039 262° West 403 464 30,000  Level Chicago Center
Sun 06:09:13 PM 42.8300 -85.1883 266° West 408 470 30,000 -484 Level Chicago Center
Sun 06:10:15 PM 42.8308 -85.3447 270° West 411 473 29,000 -1,113 Descending Chicago Center
Sun 06:11:17 PM 42.8325 -85.4989 271° West 409 471 27,700 -1,258 Descending Chicago Center
Sun 06:12:19 PM 42.8319 -85.6542 270° West 409 471 26,400 -1,258 Descending Chicago Center
Sun 06:13:21 PM 42.8264 -85.8186 267° West 428 493 25,100 -1,258 Descending Chicago Center
Sun 06:14:23 PM 42.8056 -85.9769 260° West 421 484 23,800 -1,258 Descending Chicago Center
Sun 06:15:25 PM 42.7617 -86.1206 247° West 409 471 22,500 -1,258 Descending Chicago Center
Sun 06:16:27 PM 42.7183 -86.2628 248° West 406 467 21,200 -1,161 Descending Chicago Center
Sun 06:17:29 PM 42.6667 -86.4306 247° West 401 461 20,100 -576 Descending Chicago Center
Sun 06:18:32 PM 42.6250 -86.5683 248° West 397 457 20,000 -48 Descending Chicago Center
Sun 06:19:34 PM 42.5825 -86.6986 246° West 381 438 20,000  Level Chicago Center
Sun 06:20:36 PM 42.5394 -86.8497 249° West 386 444 20,000 -1,500 Level Chicago Center
Sun 06:21:38 PM 42.5231 -86.9839 261° West 382 440 16,900 -3,581 Descending Chicago Center
Sun 06:22:40 PM 42.5697 -87.0978 299° West 378 435 12,600 -3,194 Descending Chicago Center
Sun 06:23:42 PM 42.5558 -87.2258 262° West 310 357 10,300 -1,597 Descending Chicago Center
Sun 06:24:44 PM 42.5047 -87.2933 224° Southwest 263 303 9,300 -677 Descending Chicago Center
Sun 06:25:46 PM 42.4619 -87.3783 236° Southwest 271 312 8,900 -629 Descending Chicago Center
Sun 06:26:48 PM 42.4025 -87.4503 222° Southwest 270 311 8,000 -919 Descending Chicago Center
Sun 06:27:50 PM 42.3397 -87.5158 218° Southwest 260 299 7,000 -484 Descending Chicago Center
Sun 06:28:52 PM 42.2900 -87.5694 219° Southwest 259 298 7,000 -145 Level Chicago Center
Sun 06:29:54 PM 42.2353 -87.6344 221° Southwest 262 302 6,700 -1,008 Descending Chicago Center
Sun 06:30:57 PM 42.1686 -87.7078 219° Southwest 260 299 4,900 -1,488 Descending Chicago Center
Sun 06:31:59 PM 42.1158 -87.7661 219° Southwest 252 290 3,600 -1,210 Descending Chicago Center
Sun 06:33:01 PM 42.0633 -87.8250 220° Southwest 250 288 2,400 -1,016 Descending Chicago Center
Sun 06:34:03 PM 42.0297 -87.8611 219° Southwest 189 217 1,500 -906 Descending Chicago Center
Sun 06:34:47 PM 42.0000 -87.9000 224° Southwest 157 181 800 -955 Descending Chicago TRACON
Sun 06:36:00 PM 41.9817 -87.9067 206° Southwest  Level Estimated

Login

Don't have an account? Register now (free) for customized features, flight alerts, and more!